sensor_id;sensor_type;location;lat;lon;timestamp;P1;durP1;ratioP1;P2;durP2;ratioP2
13388;SDS011;6764;53.250;10.410;2023-08-24T00:01:12;4.72;;;3.13;;
13388;SDS011;6764;53.250;10.410;2023-08-24T00:03:38;4.90;;;3.50;;
13388;SDS011;6764;53.250;10.410;2023-08-24T00:06:04;3.63;;;2.95;;
13388;SDS011;6764;53.250;10.410;2023-08-24T00:08:31;4.07;;;3.30;;
13388;SDS011;6764;53.250;10.410;2023-08-24T00:10:57;3.85;;;2.90;;
13388;SDS011;6764;53.250;10.410;2023-08-24T00:13:23;4.97;;;2.97;;
13388;SDS011;6764;53.250;10.410;2023-08-24T00:15:48;3.83;;;3.40;;
13388;SDS011;6764;53.250;10.410;2023-08-24T00:18:14;9.50;;;3.63;;
13388;SDS011;6764;53.250;10.410;2023-08-24T00:20:40;5.05;;;3.38;;
13388;SDS011;6764;53.250;10.410;2023-08-24T00:23:06;5.43;;;3.55;;
13388;SDS011;6764;53.250;10.410;2023-08-24T00:25:32;3.40;;;3.10;;
13388;SDS011;6764;53.250;10.410;2023-08-24T00:27:57;3.80;;;3.00;;
13388;SDS011;6764;53.250;10.410;2023-08-24T00:30:23;3.95;;;3.47;;
13388;SDS011;6764;53.250;10.410;2023-08-24T00:32:49;4.32;;;3.92;;
13388;SDS011;6764;53.250;10.410;2023-08-24T00:35:15;6.65;;;3.75;;
13388;SDS011;6764;53.250;10.410;2023-08-24T00:37:41;5.15;;;3.78;;
13388;SDS011;6764;53.250;10.410;2023-08-24T00:40:07;4.78;;;3.20;;
13388;SDS011;6764;53.250;10.410;2023-08-24T00:42:40;7.25;;;3.30;;
13388;SDS011;6764;53.250;10.410;2023-08-24T00:45:07;5.63;;;3.40;;
13388;SDS011;6764;53.250;10.410;2023-08-24T00:47:34;4.45;;;3.60;;
13388;SDS011;6764;53.250;10.410;2023-08-24T00:50:05;7.40;;;4.20;;
13388;SDS011;6764;53.250;10.410;2023-08-24T00:52:32;4.40;;;3.40;;
13388;SDS011;6764;53.250;10.410;2023-08-24T00:55:01;4.60;;;3.70;;
13388;SDS011;6764;53.250;10.410;2023-08-24T00:57:27;6.20;;;3.47;;
13388;SDS011;6764;53.250;10.410;2023-08-24T00:59:53;5.63;;;3.63;;
13388;SDS011;6764;53.250;10.410;2023-08-24T01:02:20;3.67;;;3.35;;
13388;SDS011;6764;53.250;10.410;2023-08-24T01:04:46;3.97;;;3.42;;
13388;SDS011;6764;53.250;10.410;2023-08-24T01:07:12;5.45;;;3.40;;
13388;SDS011;6764;53.250;10.410;2023-08-24T01:09:39;4.00;;;3.55;;
13388;SDS011;6764;53.250;10.410;2023-08-24T01:12:50;5.70;;;3.38;;
13388;SDS011;6764;53.250;10.410;2023-08-24T01:15:24;6.53;;;3.85;;
13388;SDS011;6764;53.250;10.410;2023-08-24T01:18:04;5.97;;;3.50;;
13388;SDS011;6764;53.250;10.410;2023-08-24T01:20:34;6.00;;;3.97;;
13388;SDS011;6764;53.250;10.410;2023-08-24T01:28:13;7.55;;;3.22;;
13388;SDS011;6764;53.250;10.410;2023-08-24T01:30:40;3.75;;;3.38;;
13388;SDS011;6764;53.250;10.410;2023-08-24T01:33:09;6.50;;;3.42;;
13388;SDS011;6764;53.250;10.410;2023-08-24T01:35:37;6.25;;;3.25;;
13388;SDS011;6764;53.250;10.410;2023-08-24T01:38:03;4.50;;;3.13;;
13388;SDS011;6764;53.250;10.410;2023-08-24T01:43:18;7.00;;;3.38;;
13388;SDS011;6764;53.250;10.410;2023-08-24T01:45:50;4.78;;;3.22;;
13388;SDS011;6764;53.250;10.410;2023-08-24T01:48:18;5.28;;;3.60;;
13388;SDS011;6764;53.250;10.410;2023-08-24T01:50:44;4.47;;;3.42;;
13388;SDS011;6764;53.250;10.410;2023-08-24T01:53:11;5.70;;;3.53;;
13388;SDS011;6764;53.250;10.410;2023-08-24T01:55:37;4.43;;;3.70;;
13388;SDS011;6764;53.250;10.410;2023-08-24T01:58:03;4.38;;;3.38;;
13388;SDS011;6764;53.250;10.410;2023-08-24T02:00:29;5.43;;;4.00;;
13388;SDS011;6764;53.250;10.410;2023-08-24T02:02:54;4.15;;;3.50;;
13388;SDS011;6764;53.250;10.410;2023-08-24T02:05:20;4.32;;;3.90;;
13388;SDS011;6764;53.250;10.410;2023-08-24T02:07:45;8.45;;;4.07;;
13388;SDS011;6764;53.250;10.410;2023-08-24T02:10:11;5.65;;;4.10;;
13388;SDS011;6764;53.250;10.410;2023-08-24T02:12:37;4.10;;;3.70;;
13388;SDS011;6764;53.250;10.410;2023-08-24T02:15:02;5.75;;;4.05;;
13388;SDS011;6764;53.250;10.410;2023-08-24T02:17:28;6.25;;;3.97;;
13388;SDS011;6764;53.250;10.410;2023-08-24T02:19:54;8.65;;;4.15;;
13388;SDS011;6764;53.250;10.410;2023-08-24T02:22:20;4.75;;;4.00;;
13388;SDS011;6764;53.250;10.410;2023-08-24T02:24:46;5.68;;;4.38;;
13388;SDS011;6764;53.250;10.410;2023-08-24T02:27:11;6.55;;;4.45;;
13388;SDS011;6764;53.250;10.410;2023-08-24T02:29:37;5.05;;;3.97;;
13388;SDS011;6764;53.250;10.410;2023-08-24T02:32:04;7.38;;;4.63;;
13388;SDS011;6764;53.250;10.410;2023-08-24T02:34:29;6.85;;;4.35;;
13388;SDS011;6764;53.250;10.410;2023-08-24T02:36:56;5.22;;;4.10;;
13388;SDS011;6764;53.250;10.410;2023-08-24T02:39:22;4.93;;;4.30;;
13388;SDS011;6764;53.250;10.410;2023-08-24T02:41:48;6.07;;;4.18;;
13388;SDS011;6764;53.250;10.410;2023-08-24T02:44:14;6.25;;;4.32;;
13388;SDS011;6764;53.250;10.410;2023-08-24T02:46:40;5.00;;;4.10;;
13388;SDS011;6764;53.250;10.410;2023-08-24T02:49:07;6.60;;;4.13;;
13388;SDS011;6764;53.250;10.410;2023-08-24T02:51:33;4.80;;;4.15;;
13388;SDS011;6764;53.250;10.410;2023-08-24T02:53:58;6.28;;;4.05;;
13388;SDS011;6764;53.250;10.410;2023-08-24T02:56:24;7.55;;;4.25;;
13388;SDS011;6764;53.250;10.410;2023-08-24T02:58:49;5.75;;;4.47;;
13388;SDS011;6764;53.250;10.410;2023-08-24T03:01:15;6.85;;;4.90;;
13388;SDS011;6764;53.250;10.410;2023-08-24T03:03:41;5.93;;;4.88;;
13388;SDS011;6764;53.250;10.410;2023-08-24T03:06:07;6.10;;;4.22;;
13388;SDS011;6764;53.250;10.410;2023-08-24T03:08:33;6.88;;;4.90;;
13388;SDS011;6764;53.250;10.410;2023-08-24T03:11:00;5.35;;;4.60;;
13388;SDS011;6764;53.250;10.410;2023-08-24T03:13:26;4.95;;;4.53;;
13388;SDS011;6764;53.250;10.410;2023-08-24T03:15:53;10.27;;;5.07;;
13388;SDS011;6764;53.250;10.410;2023-08-24T03:18:19;7.85;;;4.20;;
13388;SDS011;6764;53.250;10.410;2023-08-24T03:20:45;6.55;;;4.10;;
13388;SDS011;6764;53.250;10.410;2023-08-24T03:23:12;6.43;;;4.70;;
13388;SDS011;6764;53.250;10.410;2023-08-24T03:25:38;7.93;;;5.00;;
13388;SDS011;6764;53.250;10.410;2023-08-24T03:28:05;6.65;;;4.13;;
13388;SDS011;6764;53.250;10.410;2023-08-24T03:30:35;4.72;;;3.85;;
13388;SDS011;6764;53.250;10.410;2023-08-24T03:33:02;3.85;;;3.45;;
13388;SDS011;6764;53.250;10.410;2023-08-24T03:35:31;6.00;;;3.88;;
13388;SDS011;6764;53.250;10.410;2023-08-24T03:37:57;5.45;;;4.03;;
13388;SDS011;6764;53.250;10.410;2023-08-24T03:40:23;5.03;;;4.30;;
13388;SDS011;6764;53.250;10.410;2023-08-24T03:42:49;5.65;;;3.50;;
13388;SDS011;6764;53.250;10.410;2023-08-24T03:45:15;5.20;;;4.03;;
13388;SDS011;6764;53.250;10.410;2023-08-24T03:47:41;5.13;;;3.90;;
13388;SDS011;6764;53.250;10.410;2023-08-24T03:50:06;5.47;;;4.38;;
13388;SDS011;6764;53.250;10.410;2023-08-24T03:52:32;7.68;;;4.45;;
13388;SDS011;6764;53.250;10.410;2023-08-24T03:54:58;10.50;;;5.18;;
13388;SDS011;6764;53.250;10.410;2023-08-24T03:57:24;7.55;;;4.40;;
13388;SDS011;6764;53.250;10.410;2023-08-24T03:59:49;6.35;;;4.60;;
13388;SDS011;6764;53.250;10.410;2023-08-24T04:02:15;4.97;;;4.45;;
13388;SDS011;6764;53.250;10.410;2023-08-24T04:04:41;6.03;;;5.20;;
13388;SDS011;6764;53.250;10.410;2023-08-24T04:07:06;5.85;;;4.47;;
13388;SDS011;6764;53.250;10.410;2023-08-24T04:09:32;5.45;;;4.93;;
13388;SDS011;6764;53.250;10.410;2023-08-24T04:11:58;7.75;;;5.88;;
13388;SDS011;6764;53.250;10.410;2023-08-24T04:14:23;6.50;;;5.30;;
13388;SDS011;6764;53.250;10.410;2023-08-24T04:16:49;6.50;;;5.50;;
13388;SDS011;6764;53.250;10.410;2023-08-24T04:19:14;7.95;;;5.32;;
13388;SDS011;6764;53.250;10.410;2023-08-24T04:21:40;10.45;;;6.07;;
13388;SDS011;6764;53.250;10.410;2023-08-24T04:24:06;12.80;;;6.07;;
13388;SDS011;6764;53.250;10.410;2023-08-24T04:26:32;7.13;;;5.80;;
13388;SDS011;6764;53.250;10.410;2023-08-24T04:28:57;7.70;;;4.63;;
13388;SDS011;6764;53.250;10.410;2023-08-24T04:31:23;6.88;;;4.57;;
13388;SDS011;6764;53.250;10.410;2023-08-24T04:33:48;8.18;;;5.30;;
13388;SDS011;6764;53.250;10.410;2023-08-24T04:36:14;6.75;;;5.10;;
13388;SDS011;6764;53.250;10.410;2023-08-24T04:38:40;10.43;;;4.93;;
13388;SDS011;6764;53.250;10.410;2023-08-24T04:41:07;8.10;;;4.75;;
13388;SDS011;6764;53.250;10.410;2023-08-24T04:43:33;6.45;;;5.22;;
13388;SDS011;6764;53.250;10.410;2023-08-24T04:45:59;9.80;;;4.78;;
13388;SDS011;6764;53.250;10.410;2023-08-24T04:48:25;9.93;;;4.97;;
13388;SDS011;6764;53.250;10.410;2023-08-24T04:50:51;7.63;;;4.50;;
13388;SDS011;6764;53.250;10.410;2023-08-24T04:53:21;5.90;;;4.95;;
13388;SDS011;6764;53.250;10.410;2023-08-24T04:55:47;8.52;;;5.07;;
13388;SDS011;6764;53.250;10.410;2023-08-24T04:58:12;10.65;;;4.00;;
13388;SDS011;6764;53.250;10.410;2023-08-24T05:00:38;5.25;;;4.07;;
13388;SDS011;6764;53.250;10.410;2023-08-24T05:03:05;5.03;;;4.18;;
13388;SDS011;6764;53.250;10.410;2023-08-24T05:05:31;5.03;;;3.85;;
13388;SDS011;6764;53.250;10.410;2023-08-24T05:07:58;7.53;;;3.63;;
13388;SDS011;6764;53.250;10.410;2023-08-24T05:10:24;7.07;;;4.10;;
13388;SDS011;6764;53.250;10.410;2023-08-24T05:12:50;4.78;;;3.60;;
13388;SDS011;6764;53.250;10.410;2023-08-24T05:15:16;8.02;;;3.85;;
13388;SDS011;6764;53.250;10.410;2023-08-24T05:17:42;6.40;;;4.55;;
13388;SDS011;6764;53.250;10.410;2023-08-24T05:20:08;6.82;;;3.58;;
13388;SDS011;6764;53.250;10.410;2023-08-24T05:22:37;6.82;;;4.35;;
13388;SDS011;6764;53.250;10.410;2023-08-24T05:25:03;5.63;;;4.20;;
13388;SDS011;6764;53.250;10.410;2023-08-24T05:27:29;5.53;;;3.80;;
13388;SDS011;6764;53.250;10.410;2023-08-24T05:29:55;5.20;;;4.35;;
13388;SDS011;6764;53.250;10.410;2023-08-24T05:32:21;7.82;;;4.13;;
13388;SDS011;6764;53.250;10.410;2023-08-24T05:34:47;7.50;;;3.50;;
13388;SDS011;6764;53.250;10.410;2023-08-24T05:37:12;6.20;;;4.43;;
13388;SDS011;6764;53.250;10.410;2023-08-24T05:39:38;10.63;;;5.22;;
13388;SDS011;6764;53.250;10.410;2023-08-24T05:42:04;5.25;;;4.03;;
13388;SDS011;6764;53.250;10.410;2023-08-24T05:44:30;6.82;;;4.03;;
13388;SDS011;6764;53.250;10.410;2023-08-24T05:46:56;5.95;;;4.18;;
13388;SDS011;6764;53.250;10.410;2023-08-24T05:49:21;6.10;;;4.10;;
13388;SDS011;6764;53.250;10.410;2023-08-24T05:51:49;9.43;;;4.15;;
13388;SDS011;6764;53.250;10.410;2023-08-24T05:54:15;8.70;;;4.30;;
13388;SDS011;6764;53.250;10.410;2023-08-24T05:56:43;7.47;;;3.75;;
13388;SDS011;6764;53.250;10.410;2023-08-24T05:59:10;7.05;;;4.30;;
13388;SDS011;6764;53.250;10.410;2023-08-24T06:01:35;9.25;;;4.60;;
13388;SDS011;6764;53.250;10.410;2023-08-24T06:04:04;14.48;;;6.75;;
13388;SDS011;6764;53.250;10.410;2023-08-24T06:06:30;8.43;;;4.13;;
13388;SDS011;6764;53.250;10.410;2023-08-24T06:08:56;6.25;;;4.63;;
13388;SDS011;6764;53.250;10.410;2023-08-24T06:11:22;6.63;;;5.05;;
13388;SDS011;6764;53.250;10.410;2023-08-24T06:13:48;7.85;;;5.15;;
13388;SDS011;6764;53.250;10.410;2023-08-24T06:16:14;6.05;;;4.63;;
13388;SDS011;6764;53.250;10.410;2023-08-24T06:18:39;7.65;;;5.30;;
13388;SDS011;6764;53.250;10.410;2023-08-24T06:21:05;7.32;;;5.00;;
13388;SDS011;6764;53.250;10.410;2023-08-24T06:23:31;7.22;;;4.40;;
13388;SDS011;6764;53.250;10.410;2023-08-24T06:25:56;9.27;;;4.85;;
13388;SDS011;6764;53.250;10.410;2023-08-24T06:28:22;5.97;;;3.55;;
13388;SDS011;6764;53.250;10.410;2023-08-24T06:30:47;4.70;;;3.40;;
13388;SDS011;6764;53.250;10.410;2023-08-24T06:33:13;6.47;;;2.95;;
13388;SDS011;6764;53.250;10.410;2023-08-24T06:35:38;2.95;;;2.42;;
13388;SDS011;6764;53.250;10.410;2023-08-24T06:38:05;4.20;;;2.15;;
13388;SDS011;6764;53.250;10.410;2023-08-24T06:40:31;3.45;;;2.30;;
13388;SDS011;6764;53.250;10.410;2023-08-24T06:42:57;3.08;;;2.00;;
13388;SDS011;6764;53.250;10.410;2023-08-24T06:45:22;3.35;;;2.10;;
13388;SDS011;6764;53.250;10.410;2023-08-24T06:47:48;4.18;;;2.30;;
13388;SDS011;6764;53.250;10.410;2023-08-24T06:50:14;4.03;;;1.75;;
13388;SDS011;6764;53.250;10.410;2023-08-24T06:52:40;3.90;;;1.83;;
13388;SDS011;6764;53.250;10.410;2023-08-24T06:55:07;3.97;;;1.98;;
13388;SDS011;6764;53.250;10.410;2023-08-24T06:57:34;4.38;;;1.70;;
13388;SDS011;6764;53.250;10.410;2023-08-24T06:59:59;5.32;;;1.73;;
13388;SDS011;6764;53.250;10.410;2023-08-24T07:02:25;2.17;;;1.85;;
13388;SDS011;6764;53.250;10.410;2023-08-24T07:04:51;1.77;;;1.50;;
13388;SDS011;6764;53.250;10.410;2023-08-24T07:07:16;2.78;;;1.55;;
13388;SDS011;6764;53.250;10.410;2023-08-24T07:09:42;3.22;;;1.75;;
13388;SDS011;6764;53.250;10.410;2023-08-24T07:12:09;3.45;;;1.80;;
13388;SDS011;6764;53.250;10.410;2023-08-24T07:14:38;4.40;;;2.17;;
13388;SDS011;6764;53.250;10.410;2023-08-24T07:17:03;6.47;;;2.45;;
13388;SDS011;6764;53.250;10.410;2023-08-24T07:19:31;3.42;;;1.70;;
13388;SDS011;6764;53.250;10.410;2023-08-24T07:21:56;4.43;;;1.98;;
13388;SDS011;6764;53.250;10.410;2023-08-24T07:24:22;3.45;;;1.45;;
13388;SDS011;6764;53.250;10.410;2023-08-24T07:26:51;2.65;;;1.50;;
13388;SDS011;6764;53.250;10.410;2023-08-24T07:29:17;3.25;;;1.40;;
13388;SDS011;6764;53.250;10.410;2023-08-24T07:31:43;4.72;;;1.40;;
13388;SDS011;6764;53.250;10.410;2023-08-24T07:34:09;3.58;;;1.50;;
13388;SDS011;6764;53.250;10.410;2023-08-24T07:36:34;3.42;;;1.38;;
13388;SDS011;6764;53.250;10.410;2023-08-24T07:39:00;3.70;;;1.85;;
13388;SDS011;6764;53.250;10.410;2023-08-24T07:41:25;4.97;;;1.38;;
13388;SDS011;6764;53.250;10.410;2023-08-24T07:43:51;3.50;;;1.40;;
13388;SDS011;6764;53.250;10.410;2023-08-24T07:46:17;4.70;;;1.80;;
13388;SDS011;6764;53.250;10.410;2023-08-24T07:48:42;3.78;;;1.40;;
13388;SDS011;6764;53.250;10.410;2023-08-24T07:51:08;3.63;;;1.40;;
13388;SDS011;6764;53.250;10.410;2023-08-24T07:53:33;4.18;;;1.45;;
13388;SDS011;6764;53.250;10.410;2023-08-24T07:55:59;3.63;;;1.60;;
13388;SDS011;6764;53.250;10.410;2023-08-24T07:58:27;4.32;;;1.60;;
13388;SDS011;6764;53.250;10.410;2023-08-24T08:00:53;4.70;;;1.40;;
13388;SDS011;6764;53.250;10.410;2023-08-24T08:03:19;4.18;;;1.70;;
13388;SDS011;6764;53.250;10.410;2023-08-24T08:05:45;3.35;;;1.90;;
13388;SDS011;6764;53.250;10.410;2023-08-24T08:08:13;3.92;;;2.22;;
13388;SDS011;6764;53.250;10.410;2023-08-24T08:10:39;3.67;;;1.65;;
13388;SDS011;6764;53.250;10.410;2023-08-24T08:13:04;4.60;;;2.20;;
13388;SDS011;6764;53.250;10.410;2023-08-24T08:15:30;5.43;;;1.80;;
13388;SDS011;6764;53.250;10.410;2023-08-24T08:17:56;2.65;;;1.50;;
13388;SDS011;6764;53.250;10.410;2023-08-24T08:20:21;4.78;;;1.83;;
13388;SDS011;6764;53.250;10.410;2023-08-24T08:22:47;3.97;;;2.30;;
13388;SDS011;6764;53.250;10.410;2023-08-24T08:25:12;3.85;;;1.50;;
13388;SDS011;6764;53.250;10.410;2023-08-24T08:27:38;4.75;;;1.52;;
13388;SDS011;6764;53.250;10.410;2023-08-24T08:30:04;4.40;;;1.88;;
13388;SDS011;6764;53.250;10.410;2023-08-24T08:32:30;4.47;;;1.40;;
13388;SDS011;6764;53.250;10.410;2023-08-24T08:34:56;3.17;;;1.95;;
13388;SDS011;6764;53.250;10.410;2023-08-24T08:37:23;9.23;;;7.32;;
13388;SDS011;6764;53.250;10.410;2023-08-24T08:39:49;3.58;;;1.60;;
13388;SDS011;6764;53.250;10.410;2023-08-24T08:42:15;3.38;;;1.73;;
13388;SDS011;6764;53.250;10.410;2023-08-24T08:44:44;3.85;;;1.50;;
13388;SDS011;6764;53.250;10.410;2023-08-24T08:47:11;6.63;;;1.80;;
13388;SDS011;6764;53.250;10.410;2023-08-24T08:49:39;3.42;;;1.58;;
13388;SDS011;6764;53.250;10.410;2023-08-24T08:52:05;4.07;;;1.70;;
13388;SDS011;6764;53.250;10.410;2023-08-24T08:54:31;2.40;;;1.50;;
13388;SDS011;6764;53.250;10.410;2023-08-24T08:56:58;2.05;;;1.30;;
13388;SDS011;6764;53.250;10.410;2023-08-24T08:59:24;2.03;;;1.20;;
13388;SDS011;6764;53.250;10.410;2023-08-24T09:01:55;3.85;;;1.52;;
13388;SDS011;6764;53.250;10.410;2023-08-24T09:04:23;3.22;;;1.27;;
13388;SDS011;6764;53.250;10.410;2023-08-24T09:06:49;4.20;;;1.45;;
13388;SDS011;6764;53.250;10.410;2023-08-24T09:09:15;3.92;;;1.88;;
13388;SDS011;6764;53.250;10.410;2023-08-24T09:11:41;3.97;;;1.63;;
13388;SDS011;6764;53.250;10.410;2023-08-24T09:14:12;2.63;;;1.30;;
13388;SDS011;6764;53.250;10.410;2023-08-24T09:16:37;4.05;;;1.30;;
13388;SDS011;6764;53.250;10.410;2023-08-24T09:19:04;2.88;;;1.40;;
13388;SDS011;6764;53.250;10.410;2023-08-24T09:21:31;5.32;;;1.75;;
13388;SDS011;6764;53.250;10.410;2023-08-24T09:24:02;2.53;;;1.50;;
13388;SDS011;6764;53.250;10.410;2023-08-24T09:26:32;3.80;;;1.50;;
13388;SDS011;6764;53.250;10.410;2023-08-24T09:29:00;4.10;;;1.90;;
13388;SDS011;6764;53.250;10.410;2023-08-24T09:31:38;3.97;;;1.48;;
13388;SDS011;6764;53.250;10.410;2023-08-24T09:34:04;5.40;;;3.53;;
13388;SDS011;6764;53.250;10.410;2023-08-24T09:36:31;3.40;;;1.50;;
13388;SDS011;6764;53.250;10.410;2023-08-24T09:38:58;2.55;;;1.52;;
13388;SDS011;6764;53.250;10.410;2023-08-24T09:41:41;5.97;;;1.80;;
13388;SDS011;6764;53.250;10.410;2023-08-24T09:44:14;3.53;;;2.05;;
13388;SDS011;6764;53.250;10.410;2023-08-24T09:46:41;4.40;;;1.90;;
13388;SDS011;6764;53.250;10.410;2023-08-24T09:49:08;3.78;;;1.90;;
13388;SDS011;6764;53.250;10.410;2023-08-24T09:51:35;3.78;;;1.95;;
13388;SDS011;6764;53.250;10.410;2023-08-24T09:54:03;2.15;;;1.67;;
13388;SDS011;6764;53.250;10.410;2023-08-24T09:56:34;4.78;;;1.75;;
13388;SDS011;6764;53.250;10.410;2023-08-24T09:59:11;2.78;;;1.63;;
13388;SDS011;6764;53.250;10.410;2023-08-24T10:01:44;2.20;;;1.60;;
13388;SDS011;6764;53.250;10.410;2023-08-24T10:04:12;4.85;;;1.90;;
13388;SDS011;6764;53.250;10.410;2023-08-24T10:06:39;2.47;;;1.45;;
13388;SDS011;6764;53.250;10.410;2023-08-24T10:09:22;4.80;;;1.67;;
13388;SDS011;6764;53.250;10.410;2023-08-24T10:11:57;4.82;;;1.80;;
13388;SDS011;6764;53.250;10.410;2023-08-24T10:14:29;3.08;;;1.90;;
13388;SDS011;6764;53.250;10.410;2023-08-24T10:16:58;5.10;;;2.25;;
13388;SDS011;6764;53.250;10.410;2023-08-24T10:19:24;9.07;;;2.25;;
13388;SDS011;6764;53.250;10.410;2023-08-24T10:21:52;3.25;;;2.20;;
13388;SDS011;6764;53.250;10.410;2023-08-24T10:24:22;5.35;;;2.13;;
13388;SDS011;6764;53.250;10.410;2023-08-24T10:26:48;4.35;;;1.80;;
13388;SDS011;6764;53.250;10.410;2023-08-24T10:29:14;4.43;;;2.08;;
13388;SDS011;6764;53.250;10.410;2023-08-24T10:31:41;2.72;;;1.85;;
13388;SDS011;6764;53.250;10.410;2023-08-24T10:34:08;6.65;;;2.22;;
13388;SDS011;6764;53.250;10.410;2023-08-24T10:36:37;3.47;;;1.85;;
13388;SDS011;6764;53.250;10.410;2023-08-24T10:39:04;3.58;;;3.20;;
13388;SDS011;6764;53.250;10.410;2023-08-24T10:41:45;4.47;;;1.70;;
13388;SDS011;6764;53.250;10.410;2023-08-24T10:44:22;3.47;;;1.77;;
13388;SDS011;6764;53.250;10.410;2023-08-24T10:52:20;2.13;;;1.63;;
13388;SDS011;6764;53.250;10.410;2023-08-24T10:54:49;2.85;;;1.80;;
13388;SDS011;6764;53.250;10.410;2023-08-24T10:57:22;3.75;;;1.80;;
13388;SDS011;6764;53.250;10.410;2023-08-24T11:02:31;5.05;;;1.95;;
13388;SDS011;6764;53.250;10.410;2023-08-24T11:10:25;2.60;;;1.58;;
13388;SDS011;6764;53.250;10.410;2023-08-24T11:15:48;2.83;;;1.65;;
13388;SDS011;6764;53.250;10.410;2023-08-24T11:20:59;5.70;;;1.95;;
13388;SDS011;6764;53.250;10.410;2023-08-24T11:23:25;3.30;;;2.20;;
13388;SDS011;6764;53.250;10.410;2023-08-24T11:25:52;2.78;;;2.30;;
13388;SDS011;6764;53.250;10.410;2023-08-24T11:28:23;3.83;;;2.15;;
13388;SDS011;6764;53.250;10.410;2023-08-24T11:30:50;5.47;;;1.83;;
13388;SDS011;6764;53.250;10.410;2023-08-24T11:33:17;3.40;;;1.80;;
13388;SDS011;6764;53.250;10.410;2023-08-24T11:35:52;7.38;;;1.80;;
13388;SDS011;6764;53.250;10.410;2023-08-24T11:38:18;3.08;;;2.10;;
13388;SDS011;6764;53.250;10.410;2023-08-24T11:40:44;3.42;;;1.80;;
13388;SDS011;6764;53.250;10.410;2023-08-24T11:43:09;3.00;;;2.10;;
13388;SDS011;6764;53.250;10.410;2023-08-24T11:45:35;3.92;;;2.15;;
13388;SDS011;6764;53.250;10.410;2023-08-24T11:48:03;6.80;;;1.83;;
13388;SDS011;6764;53.250;10.410;2023-08-24T11:50:32;4.93;;;2.33;;
13388;SDS011;6764;53.250;10.410;2023-08-24T11:52:59;4.78;;;1.83;;
13388;SDS011;6764;53.250;10.410;2023-08-24T11:55:26;5.63;;;2.55;;
13388;SDS011;6764;53.250;10.410;2023-08-24T11:57:52;6.35;;;2.53;;
13388;SDS011;6764;53.250;10.410;2023-08-24T12:00:18;2.67;;;1.80;;
13388;SDS011;6764;53.250;10.410;2023-08-24T12:02:46;4.97;;;2.08;;
13388;SDS011;6764;53.250;10.410;2023-08-24T12:05:22;3.90;;;2.17;;
13388;SDS011;6764;53.250;10.410;2023-08-24T12:07:53;2.65;;;1.77;;
13388;SDS011;6764;53.250;10.410;2023-08-24T12:10:20;3.60;;;2.00;;
13388;SDS011;6764;53.250;10.410;2023-08-24T12:12:46;4.82;;;2.17;;
13388;SDS011;6764;53.250;10.410;2023-08-24T12:15:16;2.13;;;1.92;;
13388;SDS011;6764;53.250;10.410;2023-08-24T12:17:45;5.82;;;2.55;;
13388;SDS011;6764;53.250;10.410;2023-08-24T12:20:19;4.05;;;2.53;;
13388;SDS011;6764;53.250;10.410;2023-08-24T12:22:50;2.85;;;2.28;;
13388;SDS011;6764;53.250;10.410;2023-08-24T12:25:22;2.35;;;1.88;;
13388;SDS011;6764;53.250;10.410;2023-08-24T12:27:52;4.47;;;1.70;;
13388;SDS011;6764;53.250;10.410;2023-08-24T12:30:42;3.45;;;2.42;;
13388;SDS011;6764;53.250;10.410;2023-08-24T12:33:08;2.65;;;1.70;;
13388;SDS011;6764;53.250;10.410;2023-08-24T12:35:34;3.22;;;2.10;;
13388;SDS011;6764;53.250;10.410;2023-08-24T12:37:59;4.15;;;3.75;;
13388;SDS011;6764;53.250;10.410;2023-08-24T12:40:26;13.43;;;12.02;;
13388;SDS011;6764;53.250;10.410;2023-08-24T12:42:51;21.52;;;14.75;;
13388;SDS011;6764;53.250;10.410;2023-08-24T12:45:17;3.63;;;2.00;;
13388;SDS011;6764;53.250;10.410;2023-08-24T12:47:43;4.95;;;2.10;;
13388;SDS011;6764;53.250;10.410;2023-08-24T12:50:08;3.45;;;1.88;;
13388;SDS011;6764;53.250;10.410;2023-08-24T12:52:34;4.82;;;2.08;;
13388;SDS011;6764;53.250;10.410;2023-08-24T12:55:00;6.07;;;2.13;;
13388;SDS011;6764;53.250;10.410;2023-08-24T12:57:25;2.92;;;1.80;;
13388;SDS011;6764;53.250;10.410;2023-08-24T12:59:51;3.50;;;2.05;;
13388;SDS011;6764;53.250;10.410;2023-08-24T13:02:17;2.15;;;1.90;;
13388;SDS011;6764;53.250;10.410;2023-08-24T13:04:42;2.75;;;1.90;;
13388;SDS011;6764;53.250;10.410;2023-08-24T13:07:08;3.85;;;2.22;;
13388;SDS011;6764;53.250;10.410;2023-08-24T13:09:34;4.63;;;2.42;;
13388;SDS011;6764;53.250;10.410;2023-08-24T13:12:00;3.40;;;2.20;;
13388;SDS011;6764;53.250;10.410;2023-08-24T13:14:25;4.40;;;2.20;;
13388;SDS011;6764;53.250;10.410;2023-08-24T13:16:51;3.58;;;2.17;;
13388;SDS011;6764;53.250;10.410;2023-08-24T13:19:16;4.53;;;1.92;;
13388;SDS011;6764;53.250;10.410;2023-08-24T13:21:42;3.28;;;2.28;;
13388;SDS011;6764;53.250;10.410;2023-08-24T13:24:08;4.90;;;2.47;;
13388;SDS011;6764;53.250;10.410;2023-08-24T13:26:33;5.68;;;2.03;;
13388;SDS011;6764;53.250;10.410;2023-08-24T13:28:59;4.70;;;2.67;;
13388;SDS011;6764;53.250;10.410;2023-08-24T13:31:26;4.60;;;3.03;;
13388;SDS011;6764;53.250;10.410;2023-08-24T13:33:54;2.35;;;2.15;;
13388;SDS011;6764;53.250;10.410;2023-08-24T13:36:20;3.20;;;2.10;;
13388;SDS011;6764;53.250;10.410;2023-08-24T13:38:46;4.95;;;2.30;;
13388;SDS011;6764;53.250;10.410;2023-08-24T13:41:12;7.88;;;2.10;;
13388;SDS011;6764;53.250;10.410;2023-08-24T13:43:38;5.07;;;2.40;;
13388;SDS011;6764;53.250;10.410;2023-08-24T13:46:04;2.72;;;2.15;;
13388;SDS011;6764;53.250;10.410;2023-08-24T13:48:30;3.08;;;2.20;;
13388;SDS011;6764;53.250;10.410;2023-08-24T13:50:58;4.03;;;1.90;;
13388;SDS011;6764;53.250;10.410;2023-08-24T13:53:24;3.03;;;2.15;;
13388;SDS011;6764;53.250;10.410;2023-08-24T13:55:50;3.70;;;1.95;;
13388;SDS011;6764;53.250;10.410;2023-08-24T13:58:15;3.53;;;1.88;;
13388;SDS011;6764;53.250;10.410;2023-08-24T14:00:41;5.07;;;1.70;;
13388;SDS011;6764;53.250;10.410;2023-08-24T14:03:06;3.85;;;2.10;;
13388;SDS011;6764;53.250;10.410;2023-08-24T14:05:33;4.65;;;2.00;;
13388;SDS011;6764;53.250;10.410;2023-08-24T14:08:03;2.78;;;1.52;;
13388;SDS011;6764;53.250;10.410;2023-08-24T14:10:29;3.47;;;1.90;;
13388;SDS011;6764;53.250;10.410;2023-08-24T14:12:54;3.60;;;2.42;;
13388;SDS011;6764;53.250;10.410;2023-08-24T14:15:20;2.17;;;1.70;;
13388;SDS011;6764;53.250;10.410;2023-08-24T14:17:46;2.33;;;1.80;;
13388;SDS011;6764;53.250;10.410;2023-08-24T14:20:11;4.22;;;2.00;;
13388;SDS011;6764;53.250;10.410;2023-08-24T14:22:37;2.35;;;2.13;;
13388;SDS011;6764;53.250;10.410;2023-08-24T14:25:03;2.92;;;1.90;;
13388;SDS011;6764;53.250;10.410;2023-08-24T14:27:29;3.50;;;2.00;;
13388;SDS011;6764;53.250;10.410;2023-08-24T14:29:55;2.78;;;2.00;;
13388;SDS011;6764;53.250;10.410;2023-08-24T14:32:20;3.22;;;2.08;;
13388;SDS011;6764;53.250;10.410;2023-08-24T14:34:48;2.13;;;1.88;;
13388;SDS011;6764;53.250;10.410;2023-08-24T14:37:13;4.30;;;1.80;;
13388;SDS011;6764;53.250;10.410;2023-08-24T14:39:39;1.98;;;1.67;;
13388;SDS011;6764;53.250;10.410;2023-08-24T14:42:04;2.40;;;2.10;;
13388;SDS011;6764;53.250;10.410;2023-08-24T14:44:30;3.13;;;2.47;;
13388;SDS011;6764;53.250;10.410;2023-08-24T14:46:56;3.20;;;2.10;;
13388;SDS011;6764;53.250;10.410;2023-08-24T14:49:21;3.45;;;2.15;;
13388;SDS011;6764;53.250;10.410;2023-08-24T14:51:47;5.57;;;1.90;;
13388;SDS011;6764;53.250;10.410;2023-08-24T14:54:15;5.05;;;2.22;;
13388;SDS011;6764;53.250;10.410;2023-08-24T14:56:41;3.15;;;2.08;;
13388;SDS011;6764;53.250;10.410;2023-08-24T14:59:06;4.00;;;2.70;;
13388;SDS011;6764;53.250;10.410;2023-08-24T15:01:32;3.92;;;2.10;;
13388;SDS011;6764;53.250;10.410;2023-08-24T15:03:57;5.32;;;2.33;;
13388;SDS011;6764;53.250;10.410;2023-08-24T15:06:23;6.10;;;3.97;;
13388;SDS011;6764;53.250;10.410;2023-08-24T15:08:49;3.85;;;2.20;;
13388;SDS011;6764;53.250;10.410;2023-08-24T15:11:14;5.80;;;4.75;;
13388;SDS011;6764;53.250;10.410;2023-08-24T15:13:43;3.75;;;2.10;;